Time;durP1;ratioP1;P1;durP2;ratioP2;P2;SDS_P1;SDS_P2;PMS_P1;PMS_P2;Temp;Humidity;BMP_temperature;BMP_pressure;BME280_temperature;BME280_humidity;BME280_pressure;Samples;Min_cycle;Max_cycle;Signal;HPM_P1;HPM_P2
2021/10/09 00:01:00;;;;;;;4.20;2.90;;;;;;;-1.92;79.71;94402.44;1807854;77;21082;-82
2021/10/09 00:03:26;;;;;;;7.97;3.33;;;;;;;-1.92;79.72;94405.11;1781711;77;21030;-83
2021/10/09 00:05:53;;;;;;;7.53;3.65;;;;;;;-1.90;79.94;94406.95;1798184;79;20932;-82
2021/10/09 00:08:20;;;;;;;6.75;3.33;;;;;;;-1.86;79.92;94402.07;1770973;79;21706;-82
2021/10/09 00:10:47;;;;;;;8.57;3.37;;;;;;;-1.80;79.78;94399.58;1811195;75;21765;-82
2021/10/09 00:13:13;;;;;;;7.37;3.25;;;;;;;-1.82;79.52;94399.61;1837284;75;21009;-82
2021/10/09 00:15:40;;;;;;;8.10;3.42;;;;;;;-1.90;79.67;94399.74;1828424;76;21042;-82
2021/10/09 00:18:06;;;;;;;4.55;3.30;;;;;;;-1.99;79.79;94398.84;1813674;77;21090;-81
2021/10/09 00:20:34;;;;;;;4.28;3.08;;;;;;;-2.08;80.03;94393.37;1808199;77;21068;-82
2021/10/09 00:23:00;;;;;;;5.50;3.40;;;;;;;-2.12;80.25;94395.58;1814113;76;21119;-84
2021/10/09 00:25:26;;;;;;;6.45;3.52;;;;;;;-2.15;80.51;94389.50;1841346;76;21049;-83
2021/10/09 00:27:53;;;;;;;7.35;3.20;;;;;;;-2.11;80.78;94386.50;1821412;77;21141;-83
2021/10/09 00:30:19;;;;;;;5.45;2.87;;;;;;;-2.06;80.94;94379.22;1824547;77;21125;-83
2021/10/09 00:32:47;;;;;;;5.78;3.30;;;;;;;-2.01;80.74;94381.80;1823669;78;21088;-84
2021/10/09 00:35:13;;;;;;;5.87;2.98;;;;;;;-2.06;80.71;94380.55;1833440;77;21126;-83
2021/10/09 00:37:40;;;;;;;7.08;3.37;;;;;;;-2.06;81.00;94378.44;1825605;77;21290;-82
2021/10/09 00:40:08;;;;;;;4.40;2.80;;;;;;;-2.08;80.98;94377.38;1841282;76;20974;-83
2021/10/09 00:42:35;;;;;;;6.42;4.25;;;;;;;-2.10;80.95;94377.44;1858353;75;20951;-81
2021/10/09 00:45:02;;;;;;;6.20;3.27;;;;;;;-2.15;80.99;94378.84;1836441;77;21686;-82
2021/10/09 00:47:29;;;;;;;5.50;2.87;;;;;;;-2.22;81.22;94377.36;1823961;77;21095;-82
2021/10/09 00:49:55;;;;;;;6.27;3.43;;;;;;;-2.21;81.44;94376.27;1836279;77;21019;-82
2021/10/09 00:52:24;;;;;;;4.97;2.90;;;;;;;-2.14;81.35;94376.41;1831235;76;21015;-82
2021/10/09 00:54:50;;;;;;;4.55;2.45;;;;;;;-2.12;81.28;94374.27;1762908;77;21034;-82
2021/10/09 00:57:19;;;;;;;7.75;3.12;;;;;;;-2.14;81.29;94377.23;1846209;77;21041;-80
2021/10/09 00:59:45;;;;;;;5.12;3.33;;;;;;;-2.10;81.18;94364.11;1791291;77;21052;-81
2021/10/09 01:02:12;;;;;;;9.13;3.30;;;;;;;-2.13;80.93;94362.81;1807636;77;21012;-82
2021/10/09 01:04:39;;;;;;;10.00;3.33;;;;;;;-2.22;81.09;94360.03;1761756;79;21729;-82
2021/10/09 01:07:07;;;;;;;4.70;3.25;;;;;;;-2.26;81.10;94359.03;1778049;78;21003;-83
2021/10/09 01:09:35;;;;;;;4.67;3.75;;;;;;;-2.35;81.35;94358.65;1768143;79;21057;-82
2021/10/09 01:12:04;;;;;;;5.60;3.60;;;;;;;-2.37;81.90;94356.80;1765247;79;21091;-83
2021/10/09 01:14:30;;;;;;;6.50;3.83;;;;;;;-2.30;82.16;94357.22;1801771;78;21046;-83
2021/10/09 01:16:57;;;;;;;6.90;3.47;;;;;;;-2.24;81.55;94349.41;1843672;77;20963;-82
2021/10/09 01:19:24;;;;;;;6.45;3.17;;;;;;;-2.21;81.12;94355.49;1834521;77;21069;-83
2021/10/09 01:21:53;;;;;;;5.40;3.62;;;;;;;-2.21;81.00;94343.50;1831733;77;21033;-82
2021/10/09 01:24:21;;;;;;;7.03;4.30;;;;;;;-2.23;80.97;94352.31;1843525;77;21092;-81
2021/10/09 01:26:49;;;;;;;8.97;4.07;;;;;;;-2.28;80.89;94344.42;1771390;77;21094;-82
2021/10/09 01:29:17;;;;;;;11.93;5.77;;;;;;;-2.33;81.07;94344.48;1800504;77;21092;-82
2021/10/09 01:31:46;;;;;;;14.73;8.30;;;;;;;-2.39;81.21;94343.78;1796272;78;20938;-82
2021/10/09 01:34:20;;;;;;;18.17;8.80;;;;;;;-2.38;81.48;94348.56;1841423;77;21149;-82
2021/10/09 01:36:47;;;;;;;8.27;4.47;;;;;;;-2.37;81.54;94345.63;1844114;77;21784;-82
2021/10/09 01:39:15;;;;;;;4.28;2.92;;;;;;;-2.37;81.42;94345.63;1853397;76;21086;-82
2021/10/09 01:41:47;;;;;;;9.53;3.42;;;;;;;-2.41;81.51;94345.94;1862066;76;21973;-82
2021/10/09 01:44:14;;;;;;;7.62;3.60;;;;;;;-2.42;81.81;94344.36;1866338;76;21007;-83
2021/10/09 01:46:40;;;;;;;6.73;3.63;;;;;;;-2.42;81.90;94347.57;1871509;75;21085;-82
2021/10/09 01:49:07;;;;;;;7.92;3.85;;;;;;;-2.41;82.03;94345.94;1850509;75;21265;-82
2021/10/09 01:51:34;;;;;;;6.58;3.50;;;;;;;-2.37;82.26;94347.48;1861475;75;20932;-82
2021/10/09 01:54:03;;;;;;;7.35;3.90;;;;;;;-2.33;82.17;94345.30;1829252;77;21026;-81
2021/10/09 01:56:30;;;;;;;11.95;6.42;;;;;;;-2.35;81.96;94347.99;1844625;75;21035;-82
2021/10/09 01:58:57;;;;;;;10.90;4.93;;;;;;;-2.39;81.87;94344.33;1825658;77;21015;-82
2021/10/09 02:01:25;;;;;;;10.37;5.33;;;;;;;-2.44;81.83;94342.55;1800245;77;21735;-83
2021/10/09 02:03:52;;;;;;;11.60;5.92;;;;;;;-2.47;81.88;94343.91;1732309;81;21064;-81
2021/10/09 02:06:21;;;;;;;15.32;7.58;;;;;;;-2.45;81.92;94340.39;1814584;77;21030;-81
2021/10/09 02:08:49;;;;;;;14.03;6.80;;;;;;;-2.46;81.90;94336.16;1846942;75;20978;-81
2021/10/09 02:11:19;;;;;;;10.93;5.42;;;;;;;-2.39;81.84;94348.33;1865400;75;21473;-81
2021/10/09 02:14:04;;;;;;;5.90;3.57;;;;;;;-2.40;81.65;94350.20;1806103;77;21533;-81
2021/10/09 02:24:52;;;;;;;5.90;3.87;;;;;;;-2.53;82.29;94334.95;1796988;79;21063;-81
2021/10/09 02:27:07;;;;;;;7.20;3.97;;;;;;;-2.55;82.11;94329.14;1803170;77;21456;-82
2021/10/09 02:29:34;;;;;;;12.03;4.37;;;;;;;-2.65;81.97;94323.96;1825017;77;20983;-81
2021/10/09 02:32:02;;;;;;;6.50;3.43;;;;;;;-2.67;82.32;94334.09;1821508;77;21120;-81
2021/10/09 02:34:31;;;;;;;9.25;3.22;;;;;;;-2.65;82.62;94334.61;1806649;79;20991;-81
2021/10/09 02:36:57;;;;;;;8.17;3.73;;;;;;;-2.63;82.65;94339.09;1772699;80;20959;-81
2021/10/09 02:39:24;;;;;;;8.13;3.98;;;;;;;-2.61;82.58;94342.27;1802017;79;21114;-81
2021/10/09 02:41:52;;;;;;;6.10;3.40;;;;;;;-2.58;82.67;94340.36;1788161;78;20959;-82
2021/10/09 02:44:20;;;;;;;5.17;3.77;;;;;;;-2.57;82.55;94338.73;1774815;78;21033;-80
2021/10/09 02:46:46;;;;;;;7.50;3.53;;;;;;;-2.60;82.36;94339.30;1779494;78;21039;-81
2021/10/09 02:49:13;;;;;;;7.57;4.50;;;;;;;-2.66;82.37;94342.36;1778920;79;21015;-81
2021/10/09 02:51:41;;;;;;;6.80;3.72;;;;;;;-2.70;82.46;94344.80;1804488;77;21568;-81
2021/10/09 02:54:07;;;;;;;7.58;3.80;;;;;;;-2.72;82.44;94346.41;1791124;77;21069;-81
2021/10/09 02:56:35;;;;;;;7.90;3.60;;;;;;;-2.70;82.65;94344.27;1802883;77;21513;-82
2021/10/09 02:59:03;;;;;;;7.27;3.73;;;;;;;-2.65;82.50;94350.59;1769884;79;21014;-82
2021/10/09 03:01:31;;;;;;;9.67;3.80;;;;;;;-2.61;82.30;94343.59;1780370;77;20973;-82
2021/10/09 03:03:57;;;;;;;6.90;3.90;;;;;;;-2.57;81.85;94345.94;1813431;78;21072;-82
2021/10/09 03:06:26;;;;;;;10.07;4.03;;;;;;;-2.65;81.59;94342.59;1760089;78;21045;-82
2021/10/09 03:08:53;;;;;;;7.17;3.97;;;;;;;-2.73;81.78;94348.04;1819245;77;21033;-82
2021/10/09 03:11:19;;;;;;;6.60;3.50;;;;;;;-2.82;82.04;94349.75;1799678;77;21059;-81
2021/10/09 03:13:46;;;;;;;9.40;3.77;;;;;;;-2.93;82.41;94347.80;1786587;78;21279;-81
2021/10/09 03:16:13;;;;;;;6.37;3.87;;;;;;;-3.01;82.87;94343.09;1801897;78;21052;-81
2021/10/09 03:18:40;;;;;;;8.43;3.63;;;;;;;-3.03;83.26;94342.61;1782580;78;21037;-83
2021/10/09 03:21:07;;;;;;;9.53;4.23;;;;;;;-3.00;83.49;94350.02;1787625;78;21070;-81
2021/10/09 03:23:33;;;;;;;7.07;4.20;;;;;;;-2.92;83.30;94354.70;1788794;78;21523;-81
2021/10/09 03:26:00;;;;;;;11.70;6.87;;;;;;;-2.95;82.63;94359.25;1784022;78;21583;-81
2021/10/09 03:28:26;;;;;;;8.57;4.83;;;;;;;-3.01;82.64;94358.55;1760133;80;21179;-82
2021/10/09 03:30:53;;;;;;;11.63;4.70;;;;;;;-3.03;82.77;94357.24;1735155;80;21168;-81
2021/10/09 03:33:20;;;;;;;12.23;5.30;;;;;;;-3.05;82.78;94361.50;1827002;77;21084;-81
2021/10/09 03:35:48;;;;;;;8.00;4.50;;;;;;;-3.09;82.83;94360.49;1832915;77;21034;-81
2021/10/09 03:38:15;;;;;;;15.87;7.77;;;;;;;-3.11;83.04;94367.98;1833252;77;21062;-81
2021/10/09 03:40:45;;;;;;;16.90;8.83;;;;;;;-3.09;83.36;94368.48;1782854;79;21083;-81
2021/10/09 03:43:14;;;;;;;22.90;10.27;;;;;;;-3.07;83.41;94367.66;1830923;77;21039;-80
2021/10/09 03:45:51;;;;;;;17.63;9.10;;;;;;;-3.03;83.44;94363.89;1781246;77;21061;-80
2021/10/09 03:48:15;;;;;;;22.17;10.20;;;;;;;-3.00;83.32;94363.33;1773457;77;21072;-80
2021/10/09 03:53:04;;;;;;;33.07;14.90;;;;;;;-2.97;83.10;94371.53;1799376;77;21816;-80
2021/10/09 03:55:31;;;;;;;30.30;13.70;;;;;;;-3.00;82.85;94374.76;1847540;77;21009;-81
2021/10/09 03:57:57;;;;;;;26.95;14.10;;;;;;;-3.03;82.59;94376.66;1809055;78;21084;-80
2021/10/09 04:00:26;;;;;;;24.30;14.07;;;;;;;-3.06;82.52;94362.59;1833809;77;21028;-80
2021/10/09 04:02:54;;;;;;;25.23;13.27;;;;;;;-3.10;82.45;94371.44;1838827;77;21041;-81
2021/10/09 04:05:21;;;;;;;24.27;13.87;;;;;;;-3.13;82.73;94373.33;1827061;77;21591;-80
2021/10/09 04:07:49;;;;;;;17.20;9.10;;;;;;;-3.08;82.99;94375.95;1843687;77;21021;-80
2021/10/09 04:10:18;;;;;;;13.23;6.53;;;;;;;-3.07;82.72;94370.33;1839485;76;21010;-81
2021/10/09 04:12:44;;;;;;;12.50;6.13;;;;;;;-3.14;82.57;94380.52;1809258;77;21030;-81
2021/10/09 04:15:12;;;;;;;14.90;5.07;;;;;;;-3.19;82.81;94367.30;1808176;77;21057;-81
2021/10/09 04:17:41;;;;;;;13.97;5.10;;;;;;;-3.20;83.23;94379.81;1787131;78;21081;-82
2021/10/09 04:20:10;;;;;;;18.77;4.57;;;;;;;-3.13;83.69;94375.99;1748345;80;21121;-81
2021/10/09 04:22:37;;;;;;;13.70;5.50;;;;;;;-3.09;83.67;94373.80;1771400;80;21088;-81
2021/10/09 04:25:06;;;;;;;11.37;5.00;;;;;;;-3.07;83.69;94377.52;1774320;80;21057;-81
2021/10/09 04:27:33;;;;;;;11.07;4.20;;;;;;;-3.10;83.85;94378.09;1743248;79;21022;-81
2021/10/09 04:30:03;;;;;;;10.50;5.07;;;;;;;-3.12;84.23;94375.72;1842946;75;21504;-81
2021/10/09 04:32:31;;;;;;;10.63;4.90;;;;;;;-3.05;84.80;94378.02;1818432;77;21075;-81
2021/10/09 04:34:58;;;;;;;10.33;4.37;;;;;;;-2.98;84.27;94381.11;1825916;77;21069;-82
2021/10/09 04:37:24;;;;;;;10.03;4.60;;;;;;;-2.95;84.44;94384.54;1833908;76;22089;-83
2021/10/09 04:39:52;;;;;;;9.47;4.53;;;;;;;-2.90;84.72;94385.00;1796468;77;21138;-82
2021/10/09 04:42:20;;;;;;;8.77;4.13;;;;;;;-2.82;85.14;94391.02;1825072;75;21123;-81
2021/10/09 04:44:47;;;;;;;8.47;4.40;;;;;;;-2.71;85.04;94384.47;1843650;75;21020;-82
2021/10/09 04:47:14;;;;;;;7.27;4.07;;;;;;;-2.62;84.70;94388.08;1805630;76;21008;-82
2021/10/09 04:49:42;;;;;;;9.93;4.37;;;;;;;-2.58;84.43;94389.09;1849566;75;21182;-81
2021/10/09 04:52:08;;;;;;;10.93;5.17;;;;;;;-2.59;84.68;94390.72;1825420;76;21034;-82
2021/10/09 04:54:38;;;;;;;12.73;5.93;;;;;;;-2.59;85.01;94392.05;1793001;77;21094;-82
2021/10/09 04:57:05;;;;;;;8.85;5.33;;;;;;;-2.57;85.06;94391.20;1772335;78;21063;-82
2021/10/09 04:59:31;;;;;;;12.03;5.50;;;;;;;-2.54;85.11;94385.30;1787307;78;21660;-81
2021/10/09 05:01:58;;;;;;;9.00;5.67;;;;;;;-2.52;84.97;94393.27;1744273;80;21129;-82
2021/10/09 05:04:25;;;;;;;9.85;4.75;;;;;;;-2.54;84.71;94390.63;1786439;78;21169;-83
2021/10/09 05:06:53;;;;;;;12.80;6.47;;;;;;;-2.51;84.82;94390.06;1740830;79;21397;-83
2021/10/09 05:09:20;;;;;;;12.37;5.40;;;;;;;-2.43;84.74;94391.28;1796862;78;21027;-82
2021/10/09 05:11:46;;;;;;;18.07;6.27;;;;;;;-2.39;84.69;94391.73;1776344;78;21086;-83
2021/10/09 05:14:15;;;;;;;9.57;4.13;;;;;;;-2.34;84.88;94392.98;1753267;79;21034;-80
2021/10/09 05:16:41;;;;;;;21.57;5.40;;;;;;;-2.29;84.78;94394.25;1799661;77;21346;-84
2021/10/09 05:19:08;;;;;;;14.93;5.83;;;;;;;-2.31;84.84;94399.06;1807001;77;21138;-83
2021/10/09 05:21:36;;;;;;;15.63;5.43;;;;;;;-2.26;85.28;94395.01;1792638;77;21718;-82
2021/10/09 05:24:04;;;;;;;14.40;7.00;;;;;;;-2.18;85.26;94394.07;1778634;77;21040;-83
2021/10/09 05:26:32;;;;;;;13.18;7.05;;;;;;;-2.09;85.54;94389.67;1801621;77;21126;-82
2021/10/09 05:28:58;;;;;;;19.48;7.85;;;;;;;-2.02;85.67;94397.55;1778452;78;21137;-82
2021/10/09 05:31:26;;;;;;;17.85;8.48;;;;;;;-1.97;85.57;94397.99;1814031;77;21684;-82
2021/10/09 05:33:54;;;;;;;18.77;8.68;;;;;;;-1.93;85.21;94403.53;1800089;77;21066;-83
2021/10/09 05:36:22;;;;;;;19.75;9.33;;;;;;;-1.90;85.36;94406.41;1784984;78;21066;-83
2021/10/09 05:38:49;;;;;;;17.05;8.65;;;;;;;-1.82;85.41;94401.73;1773399;78;21742;-83
2021/10/09 05:41:16;;;;;;;15.70;8.53;;;;;;;-1.68;85.77;94401.77;1826828;77;21301;-83
2021/10/09 05:43:45;;;;;;;15.55;8.45;;;;;;;-1.41;86.12;94409.02;1836433;77;21164;-84
2021/10/09 05:46:14;;;;;;;23.98;12.53;;;;;;;-1.03;86.59;94404.27;1824741;77;21677;-85
2021/10/09 05:48:42;;;;;;;28.90;10.50;;;;;;;-0.50;86.43;94406.90;1826638;77;21690;-84
2021/10/09 05:51:18;;;;;;;17.32;9.85;;;;;;;0.00;85.59;94402.83;1823781;77;21022;-84
2021/10/09 05:54:04;;;;;;;16.00;9.93;;;;;;;0.41;83.77;94405.26;1822749;76;22050;-84
2021/10/09 06:42:44;;;;;;;20.00;10.08;;;;;;;-0.08;79.66;94411.55;1852560;75;22842;-85
2021/10/09 07:01:08;;;;;;;30.02;13.25;;;;;;;0.24;77.81;94427.91;1788726;75;21607;-86
2021/10/09 07:03:35;;;;;;;20.52;10.75;;;;;;;0.28;77.71;94428.09;1829681;75;21079;-84
2021/10/09 07:06:02;;;;;;;20.97;11.43;;;;;;;0.33;77.29;94429.30;1838546;76;21067;-85
2021/10/09 07:08:31;;;;;;;29.48;12.53;;;;;;;0.37;77.25;94427.59;1818356;76;21045;-85
2021/10/09 07:11:03;;;;;;;26.40;12.25;;;;;;;0.40;77.30;94426.98;1788612;77;20959;-86
2021/10/09 07:13:31;;;;;;;26.85;12.05;;;;;;;0.44;76.93;94431.96;1808703;77;22033;-85
2021/10/09 07:15:57;;;;;;;25.50;14.07;;;;;;;0.51;76.75;94428.30;1801324;77;21536;-85
2021/10/09 07:18:24;;;;;;;29.18;11.55;;;;;;;0.56;76.89;94426.83;1788829;77;21073;-86
2021/10/09 07:20:52;;;;;;;21.52;10.58;;;;;;;0.63;77.08;94429.86;1819138;77;21025;-85
2021/10/09 07:23:18;;;;;;;20.82;10.45;;;;;;;0.72;77.37;94436.06;1774083;79;21084;-86
2021/10/09 07:25:46;;;;;;;19.32;11.03;;;;;;;0.82;76.89;94432.86;1776566;78;21065;-86
2021/10/09 07:28:12;;;;;;;22.27;12.07;;;;;;;0.89;76.98;94425.17;1777587;78;21761;-86
2021/10/09 07:30:39;;;;;;;26.12;11.65;;;;;;;0.95;77.37;94427.41;1789433;78;21114;-85
2021/10/09 07:33:06;;;;;;;21.93;11.90;;;;;;;1.00;77.24;94429.70;1770822;79;21355;-86
2021/10/09 07:35:33;;;;;;;26.02;13.28;;;;;;;1.06;76.88;94427.14;1793334;78;20996;-85
2021/10/09 07:37:59;;;;;;;33.02;13.88;;;;;;;1.14;77.00;94430.39;1745990;77;20983;-86
2021/10/09 07:40:26;;;;;;;25.23;13.32;;;;;;;1.20;76.88;94434.48;1781890;78;20982;-86
2021/10/09 07:42:52;;;;;;;21.90;11.38;;;;;;;1.28;76.78;94435.61;1795945;78;20959;-87
2021/10/09 07:45:18;;;;;;;29.52;12.68;;;;;;;1.32;76.46;94441.41;1817986;77;21485;-84
2021/10/09 07:47:45;;;;;;;22.70;12.93;;;;;;;1.38;76.40;94438.80;1815192;76;20903;-85
2021/10/09 07:50:11;;;;;;;25.55;11.22;;;;;;;1.42;76.40;94436.28;1780115;76;21049;-85
2021/10/09 07:52:39;;;;;;;21.93;12.15;;;;;;;1.46;76.39;94435.89;1785505;77;21104;-88
2021/10/09 07:55:07;;;;;;;27.58;14.33;;;;;;;1.52;75.99;94444.04;1761740;79;21065;-85
2021/10/09 07:57:35;;;;;;;36.50;16.80;;;;;;;1.58;75.17;94437.44;1803692;77;21723;-86
2021/10/09 08:00:03;;;;;;;22.77;11.80;;;;;;;1.64;73.28;94438.06;1810526;77;21026;-86
2021/10/09 08:02:35;;;;;;;20.27;10.93;;;;;;;1.72;73.40;94441.30;1787422;77;21354;-86
2021/10/09 08:05:04;;;;;;;23.75;11.33;;;;;;;1.80;73.78;94445.88;1835214;75;21682;-85
2021/10/09 08:07:31;;;;;;;21.27;10.38;;;;;;;1.88;73.69;94438.94;1847306;75;21075;-85
2021/10/09 08:09:57;;;;;;;22.27;13.03;;;;;;;1.95;73.16;94447.31;1805356;77;21131;-86
2021/10/09 08:12:24;;;;;;;28.85;12.58;;;;;;;2.04;73.00;94451.35;1826648;76;21124;-86
2021/10/09 08:14:50;;;;;;;23.80;12.90;;;;;;;2.09;72.54;94451.97;1808013;77;21006;-85
2021/10/09 08:17:17;;;;;;;25.32;11.80;;;;;;;2.16;71.82;94450.95;1842559;76;21099;-85
2021/10/09 08:19:43;;;;;;;25.70;10.85;;;;;;;2.25;71.58;94451.48;1821318;75;21055;-85
2021/10/09 08:22:11;;;;;;;26.45;12.43;;;;;;;2.33;71.12;94452.84;1813450;77;21693;-85
2021/10/09 08:24:44;;;;;;;23.87;11.60;;;;;;;2.43;70.60;94457.86;1812154;77;21135;-85
2021/10/09 08:40:39;;;;;;;19.67;10.05;;;;;;;2.84;69.17;94453.05;1819452;76;20216;-84
2021/10/09 08:43:07;;;;;;;25.70;11.05;;;;;;;2.89;68.93;94446.15;1844396;76;21074;-84
2021/10/09 08:45:34;;;;;;;23.20;11.15;;;;;;;2.96;68.86;94447.00;1841611;75;21487;-85
2021/10/09 08:48:00;;;;;;;20.95;8.83;;;;;;;3.00;68.26;94449.27;1839678;75;21412;-85
2021/10/09 08:50:27;;;;;;;21.02;9.45;;;;;;;3.06;67.38;94442.63;1790097;75;21121;-86
2021/10/09 08:53:08;;;;;;;22.58;10.38;;;;;;;3.12;66.70;94446.16;1775119;78;21092;-83
2021/10/09 08:55:38;;;;;;;18.30;10.45;;;;;;;3.20;66.92;94445.08;1807096;76;21217;-86
2021/10/09 08:58:11;;;;;;;21.45;11.18;;;;;;;3.30;65.83;94441.47;1849361;76;20975;-84
2021/10/09 09:35:50;;;;;;;29.42;15.43;;;;;;;4.24;57.09;94432.31;1785680;75;21459;-84
2021/10/09 09:40:49;;;;;;;30.90;12.85;;;;;;;4.32;56.65;94440.87;1797146;76;21133;-85
2021/10/09 09:43:16;;;;;;;25.35;14.58;;;;;;;4.36;57.95;94437.74;1806816;77;21076;-86
2021/10/09 09:45:45;;;;;;;33.85;15.30;;;;;;;4.39;55.60;94446.51;1852464;75;21589;-84
2021/10/09 09:48:11;;;;;;;24.65;12.90;;;;;;;4.43;54.51;94450.68;1779033;78;21776;-86
2021/10/09 09:50:40;;;;;;;35.70;16.50;;;;;;;4.46;56.77;94444.07;1765373;80;21053;-87
2021/10/09 09:53:06;;;;;;;30.90;14.47;;;;;;;4.50;56.50;94448.23;1785979;77;21038;-85
2021/10/09 09:55:33;;;;;;;28.98;13.28;;;;;;;4.52;53.10;94434.68;1794453;77;21058;-84
2021/10/09 09:58:00;;;;;;;23.98;13.38;;;;;;;4.53;55.17;94444.33;1793965;77;21054;-84
2021/10/09 10:00:28;;;;;;;25.72;12.80;;;;;;;4.53;55.88;94438.94;1802682;77;21745;-84
2021/10/09 10:02:56;;;;;;;29.63;13.53;;;;;;;4.57;56.67;94443.11;1799378;77;21030;-83
2021/10/09 10:05:26;;;;;;;29.20;14.60;;;;;;;4.56;55.57;94439.63;1764648;78;21571;-83
2021/10/09 10:07:52;;;;;;;30.48;13.80;;;;;;;4.56;55.13;94446.36;1757098;78;21080;-85
2021/10/09 10:10:18;;;;;;;28.62;14.35;;;;;;;4.54;50.79;94444.55;1811593;77;21029;-85
2021/10/09 10:15:17;;;;;;;29.95;13.08;;;;;;;4.47;53.71;94442.16;1730831;80;21115;-83
2021/10/09 10:17:47;;;;;;;27.80;13.25;;;;;;;4.48;53.74;94439.72;1776055;77;21058;-85
2021/10/09 10:20:18;;;;;;;24.77;13.85;;;;;;;4.49;52.93;94439.94;1801820;75;21377;-84
2021/10/09 10:22:51;;;;;;;25.40;14.58;;;;;;;4.53;51.46;94438.94;1799618;76;21327;-84
2021/10/09 10:25:26;;;;;;;30.10;16.05;;;;;;;4.56;52.22;94438.28;1816461;77;21721;-83
2021/10/09 10:27:55;;;;;;;22.37;12.40;;;;;;;4.60;51.44;94443.23;1713818;80;21140;-86
2021/10/09 10:30:24;;;;;;;23.62;13.03;;;;;;;4.63;50.00;94447.96;1839931;76;21046;-85
2021/10/09 10:33:03;;;;;;;27.45;13.88;;;;;;;4.60;47.78;94447.27;1765359;76;21528;-84
2021/10/09 10:35:38;;;;;;;30.60;13.15;;;;;;;4.53;48.32;94437.59;1764563;79;21691;-84
2021/10/09 10:38:25;;;;;;;26.57;13.48;;;;;;;4.51;48.84;94443.08;1791235;78;21464;-85
2021/10/09 10:41:00;;;;;;;29.65;13.60;;;;;;;4.51;48.62;94442.52;1820514;76;21041;-86
2021/10/09 10:43:39;;;;;;;34.00;15.13;;;;;;;4.50;47.38;94446.89;1835891;76;25897;-86
2021/10/09 10:51:56;;;;;;;30.40;13.93;;;;;;;4.45;48.90;94440.38;1800177;77;21717;-84
2021/10/09 10:57:03;;;;;;;28.60;12.05;;;;;;;4.53;51.02;94442.98;1742966;79;21687;-85
2021/10/09 11:02:41;;;;;;;32.60;13.35;;;;;;;4.67;50.07;94439.22;1782229;78;21421;-85
2021/10/09 11:05:02;;;;;;;23.57;11.55;;;;;;;4.71;49.87;94429.35;1742857;80;21292;-86
2021/10/09 11:07:31;;;;;;;27.30;13.38;;;;;;;4.73;48.33;94431.13;1739087;79;21755;-88
2021/10/09 11:10:07;;;;;;;21.52;11.33;;;;;;;4.74;48.97;94430.01;1780982;78;21119;-86
2021/10/09 11:12:36;;;;;;;30.00;12.30;;;;;;;4.75;49.04;94431.04;1761148;78;21268;-87
2021/10/09 11:15:17;;;;;;;24.45;11.38;;;;;;;4.81;49.63;94431.59;1795117;77;21173;-86
2021/10/09 11:17:59;;;;;;;26.50;13.25;;;;;;;4.85;48.42;94433.85;1789605;77;21075;-86
2021/10/09 11:20:32;;;;;;;25.62;12.93;;;;;;;4.84;49.28;94429.02;1802944;77;22352;-85
2021/10/09 11:23:05;;;;;;;29.60;15.32;;;;;;;4.90;48.79;94430.96;1783151;78;21095;-85
2021/10/09 11:25:37;;;;;;;21.85;12.68;;;;;;;4.94;48.72;94431.86;1763223;77;21983;-86
2021/10/09 11:28:16;;;;;;;21.77;10.75;;;;;;;4.99;48.61;94432.98;1823877;77;21140;-85
2021/10/09 11:30:42;;;;;;;23.10;10.30;;;;;;;5.02;47.50;94424.80;1790836;79;21542;-86
2021/10/09 11:33:09;;;;;;;20.88;10.90;;;;;;;5.01;47.90;94426.71;1803375;77;21523;-85
2021/10/09 11:35:38;;;;;;;23.67;13.40;;;;;;;5.01;47.43;94420.53;1819756;76;21105;-86
2021/10/09 11:38:21;;;;;;;35.98;12.35;;;;;;;5.01;47.86;94428.06;1810005;78;21057;-86
2021/10/09 11:40:56;;;;;;;20.43;10.50;;;;;;;5.06;47.99;94425.14;1796204;78;21101;-85
2021/10/09 11:46:18;;;;;;;24.60;11.00;;;;;;;5.18;47.63;94418.97;1822871;76;21049;-86
2021/10/09 11:56:45;;;;;;;18.60;10.95;;;;;;;5.45;47.51;94418.06;1793327;77;22155;-86
2021/10/09 11:59:13;;;;;;;19.57;11.20;;;;;;;5.49;47.60;94411.69;1797492;79;21198;-85
2021/10/09 12:01:44;;;;;;;17.60;8.75;;;;;;;5.54;47.45;94412.80;1796690;78;21595;-85
2021/10/09 12:04:23;;;;;;;15.25;8.85;;;;;;;5.58;47.14;94408.29;1804178;77;20971;-85
2021/10/09 12:09:57;;;;;;;18.20;8.55;;;;;;;5.65;47.00;94412.34;1807618;77;21113;-85
2021/10/09 12:12:24;;;;;;;18.57;9.18;;;;;;;5.66;46.52;94409.30;1756049;80;21109;-84
2021/10/09 12:14:52;;;;;;;17.27;9.48;;;;;;;5.67;47.20;94399.28;1793749;78;28281;-86
2021/10/09 12:17:21;;;;;;;17.12;9.05;;;;;;;5.72;46.65;94411.99;1747629;79;21078;-87
2021/10/09 12:20:03;;;;;;;25.15;9.83;;;;;;;5.74;46.02;94408.38;1781221;78;21053;-86
2021/10/09 12:22:34;;;;;;;21.23;8.63;;;;;;;5.71;45.90;94403.66;1778596;78;21966;-86
2021/10/09 12:25:00;;;;;;;19.02;8.18;;;;;;;5.71;45.80;94400.95;1734796;80;21035;-87
2021/10/09 12:27:27;;;;;;;17.73;8.53;;;;;;;5.73;45.88;94400.06;1760032;77;21057;-88
2021/10/09 12:30:08;;;;;;;18.20;9.05;;;;;;;5.79;46.40;94403.30;1755849;79;21481;-86
2021/10/09 12:32:47;;;;;;;21.20;8.60;;;;;;;5.78;45.63;94401.73;1754064;79;21057;-87
2021/10/09 12:35:20;;;;;;;22.22;9.05;;;;;;;5.74;46.04;94399.50;1734789;80;21162;-86
2021/10/09 12:38:08;;;;;;;18.05;8.83;;;;;;;5.76;46.44;94393.99;1769319;78;21607;-85
2021/10/09 12:40:39;;;;;;;18.60;8.05;;;;;;;5.87;46.62;94384.05;1820363;76;21017;-88
2021/10/09 12:43:10;;;;;;;18.77;8.53;;;;;;;5.96;46.14;94388.23;1812711;76;21700;-86
2021/10/09 12:45:34;;;;;;;21.82;8.50;;;;;;;6.02;45.68;94390.14;1827689;76;21337;-86
2021/10/09 12:48:02;;;;;;;13.40;8.45;;;;;;;6.04;45.58;94385.17;1809555;77;21905;-89
2021/10/09 12:50:33;;;;;;;19.57;9.25;;;;;;;6.05;44.73;94390.22;1791469;75;21025;-88
2021/10/09 12:52:59;;;;;;;14.20;8.13;;;;;;;5.98;44.83;94386.52;1819218;76;21010;-87
2021/10/09 12:55:28;;;;;;;24.72;9.78;;;;;;;5.92;45.36;94379.24;1817870;77;21030;-85
2021/10/09 12:57:57;;;;;;;17.62;8.85;;;;;;;5.95;45.89;94379.92;1860487;75;21039;-86
2021/10/09 13:00:25;;;;;;;20.62;9.03;;;;;;;6.01;46.05;94376.40;1831099;76;21790;-86
2021/10/09 13:02:51;;;;;;;15.60;9.15;;;;;;;6.07;45.98;94387.19;1812542;77;21583;-85
2021/10/09 13:05:22;;;;;;;19.20;9.55;;;;;;;6.06;45.80;94378.88;1779060;78;20958;-85
2021/10/09 13:07:50;;;;;;;16.77;8.60;;;;;;;6.06;46.80;94378.31;1788678;78;21864;-87
2021/10/09 13:10:18;;;;;;;19.62;8.08;;;;;;;6.15;46.33;94374.11;1856260;75;21099;-86
2021/10/09 13:12:46;;;;;;;20.25;9.83;;;;;;;6.24;45.75;94375.30;1808015;75;21113;-87
2021/10/09 13:15:17;;;;;;;20.25;8.10;;;;;;;6.25;45.21;94379.03;1793671;77;21011;-88
2021/10/09 13:17:42;;;;;;;13.38;7.22;;;;;;;6.24;45.39;94378.00;1823070;76;21087;-84
2021/10/09 13:20:09;;;;;;;19.17;7.20;;;;;;;6.24;43.79;94386.10;1847608;76;21035;-87
2021/10/09 13:22:36;;;;;;;15.53;7.80;;;;;;;6.18;43.59;94379.39;1777963;78;22275;-83
2021/10/09 13:25:03;;;;;;;13.70;7.92;;;;;;;6.13;42.74;94376.37;1786480;78;21103;-86
2021/10/09 13:27:30;;;;;;;15.00;8.50;;;;;;;6.08;44.08;94380.66;1783557;78;21671;-84
2021/10/09 13:29:58;;;;;;;17.15;8.10;;;;;;;6.11;45.18;94372.44;1787689;78;21081;-86
2021/10/09 13:32:25;;;;;;;12.13;7.05;;;;;;;6.19;44.67;94373.64;1752856;80;21125;-86
2021/10/09 13:34:52;;;;;;;17.82;8.10;;;;;;;6.20;44.80;94373.84;1783231;77;21046;-84
2021/10/09 13:37:23;;;;;;;17.27;8.75;;;;;;;6.17;44.85;94362.95;1857201;75;21064;-86
2021/10/09 13:39:52;;;;;;;19.73;8.10;;;;;;;6.10;44.15;94374.92;1784529;76;21073;-86
2021/10/09 13:42:18;;;;;;;13.62;7.45;;;;;;;6.03;44.94;94365.48;1753016;80;21762;-87
2021/10/09 13:44:44;;;;;;;18.00;9.58;;;;;;;6.05;44.53;94369.18;1762244;76;20966;-86
2021/10/09 13:47:10;;;;;;;15.10;7.33;;;;;;;6.05;44.79;94371.31;1809485;78;21071;-87
2021/10/09 13:49:38;;;;;;;20.60;8.13;;;;;;;6.02;45.39;94363.92;1774370;78;21132;-86
2021/10/09 13:52:07;;;;;;;17.70;9.15;;;;;;;6.04;45.55;94367.05;1850525;75;21689;-85
2021/10/09 13:54:33;;;;;;;17.20;7.92;;;;;;;6.06;45.25;94371.55;1834940;75;21119;-85
2021/10/09 13:57:00;;;;;;;18.92;8.23;;;;;;;6.05;45.45;94368.61;1834197;77;21048;-85
2021/10/09 13:59:26;;;;;;;16.82;7.97;;;;;;;6.08;45.34;94371.98;1821982;75;21428;-89
2021/10/09 14:01:52;;;;;;;28.95;8.65;;;;;;;6.13;45.74;94370.98;1853066;75;21080;-87
2021/10/09 14:04:19;;;;;;;23.70;9.75;;;;;;;6.20;45.42;94369.02;1844118;75;21097;-86
2021/10/09 14:06:45;;;;;;;19.05;7.85;;;;;;;6.23;45.63;94371.81;1824231;75;21045;-87